EZS1311 LSGG-LEMD
Flight info
| Callsign | EZS1311 |
|---|---|
| Flight time | N/A |
| Altitude | 35000 |
| Route | DEPUL T544 LSE DCT RUSIT DCT ESIDA DCT LERGA DCT MINSO DCT NARAK DCT AGN DCT MAQAB DCT TIVLI DCT ELSAP DCT ZAR DCT KONKE DCT TERSA |
| Aircraft | A320/M-SDE3FGHIRWY/LB1 |
Departure
| Time | 2026-05-06 01:45 |
|---|---|
| Airport | Geneva International Airport (LSGG) |
Arrival
| Time | N/A |
|---|---|
| Airport | Adolfo Suárez Madrid–Barajas Airport (LEMD) |
| Time | Latitude | Longitude | Altitude | Speed | Heading |
|---|---|---|---|---|---|
| 2026-05-06 01:31 | 46.23106 | 6.10327 | 1393 ft | 0 kts | 270° |
| 2026-05-06 01:37 | 46.23106 | 6.10287 | 1393 ft | 9 kts | 270° |
| 2026-05-06 01:38 | 46.23096 | 6.10190 | 1397 ft | 9 kts | 233° |
| 2026-05-06 01:38 | 46.23051 | 6.10168 | 1393 ft | 9 kts | 150° |
| 2026-05-06 01:38 | 46.22980 | 6.10268 | 1396 ft | 15 kts | 136° |
| 2026-05-06 01:38 | 46.22962 | 6.10357 | 1395 ft | 9 kts | 59° |
| 2026-05-06 01:39 | 46.23026 | 6.10451 | 1398 ft | 16 kts | 45° |
| 2026-05-06 01:39 | 46.23087 | 6.10462 | 1404 ft | 11 kts | 315° |
| 2026-05-06 01:39 | 46.23159 | 6.10358 | 1396 ft | 15 kts | 317° |
| 2026-05-06 01:39 | 46.23225 | 6.10386 | 1399 ft | 13 kts | 44° |
| 2026-05-06 01:40 | 46.23303 | 6.10499 | 1396 ft | 18 kts | 45° |
| 2026-05-06 01:40 | 46.23398 | 6.10633 | 1393 ft | 20 kts | 40° |
| 2026-05-06 01:40 | 46.23499 | 6.10778 | 1386 ft | 21 kts | 45° |
| 2026-05-06 01:40 | 46.23606 | 6.10932 | 1388 ft | 22 kts | 44° |
| 2026-05-06 01:41 | 46.23719 | 6.11099 | 1383 ft | 25 kts | 46° |
| 2026-05-06 01:41 | 46.23854 | 6.11299 | 1376 ft | 28 kts | 45° |
| 2026-05-06 01:41 | 46.23996 | 6.11509 | 1372 ft | 25 kts | 46° |
| 2026-05-06 01:41 | 46.24122 | 6.11694 | 1366 ft | 27 kts | 45° |
| 2026-05-06 01:42 | 46.24262 | 6.11897 | 1362 ft | 29 kts | 45° |
| 2026-05-06 01:42 | 46.24401 | 6.12102 | 1369 ft | 27 kts | 45° |
| 2026-05-06 01:42 | 46.24529 | 6.12291 | 1372 ft | 26 kts | 45° |
| 2026-05-06 01:42 | 46.24664 | 6.12488 | 1365 ft | 29 kts | 45° |
| 2026-05-06 01:43 | 46.24791 | 6.12659 | 1362 ft | 18 kts | 27° |
| 2026-05-06 01:43 | 46.24906 | 6.12715 | 1366 ft | 17 kts | 17° |
| 2026-05-06 01:43 | 46.24991 | 6.12683 | 1371 ft | 12 kts | 293° |
| 2026-05-06 01:43 | 46.24968 | 6.12603 | 1371 ft | 11 kts | 225° |
| 2026-05-06 01:44 | 46.24805 | 6.12362 | 1372 ft | 67 kts | 225° |
| 2026-05-06 01:44 | 46.24324 | 6.11656 | 1373 ft | 127 kts | 225° |
| 2026-05-06 01:44 | 46.23594 | 6.10585 | 1384 ft | 171 kts | 225° |
| 2026-05-06 01:44 | 46.22718 | 6.09311 | 1877 ft | 178 kts | 226° |
| 2026-05-06 01:45 | 46.21844 | 6.08024 | 2554 ft | 184 kts | 226° |
| 2026-05-06 01:45 | 46.20897 | 6.06629 | 2850 ft | 206 kts | 226° |
| 2026-05-06 01:45 | 46.19846 | 6.05086 | 3194 ft | 226 kts | 225° |
| 2026-05-06 01:45 | 46.18686 | 6.03385 | 3595 ft | 248 kts | 225° |
| 2026-05-06 01:46 | 46.17455 | 6.01581 | 4358 ft | 255 kts | 225° |
| 2026-05-06 01:46 | 46.16199 | 5.99744 | 5260 ft | 257 kts | 225° |
| 2026-05-06 01:46 | 46.14947 | 5.97888 | 6160 ft | 259 kts | 225° |
| 2026-05-06 01:46 | 46.13704 | 5.95988 | 7004 ft | 262 kts | 229° |
| 2026-05-06 01:47 | 46.12606 | 5.93869 | 7816 ft | 266 kts | 233° |
| 2026-05-06 01:47 | 46.11572 | 5.91628 | 8603 ft | 271 kts | 235° |
| 2026-05-06 01:47 | 46.10548 | 5.89325 | 9380 ft | 276 kts | 235° |
| 2026-05-06 01:47 | 46.09505 | 5.86974 | 10112 ft | 281 kts | 235° |
| 2026-05-06 01:48 | 46.08402 | 5.84508 | 10370 ft | 305 kts | 235° |
| 2026-05-06 01:48 | 46.07211 | 5.81870 | 10720 ft | 321 kts | 235° |
| 2026-05-06 01:48 | 46.05977 | 5.79158 | 11376 ft | 326 kts | 235° |
| 2026-05-06 01:48 | 46.04721 | 5.76412 | 12093 ft | 330 kts | 235° |
| 2026-05-06 01:49 | 46.03450 | 5.73641 | 12797 ft | 333 kts | 235° |
| 2026-05-06 01:49 | 46.02179 | 5.70880 | 13494 ft | 337 kts | 234° |
| 2026-05-06 01:49 | 46.00877 | 5.68063 | 14174 ft | 339 kts | 234° |
| 2026-05-06 01:49 | 45.99564 | 5.65228 | 14812 ft | 341 kts | 234° |
| 2026-05-06 01:50 | 45.98239 | 5.62371 | 15421 ft | 344 kts | 234° |
| 2026-05-06 01:50 | 45.96907 | 5.59494 | 16058 ft | 347 kts | 234° |
| 2026-05-06 01:50 | 45.95588 | 5.56578 | 16668 ft | 350 kts | 235° |
| 2026-05-06 01:50 | 45.94284 | 5.53619 | 17273 ft | 352 kts | 236° |
| 2026-05-06 01:51 | 45.92974 | 5.50619 | 17845 ft | 357 kts | 236° |
| 2026-05-06 01:51 | 45.91651 | 5.47584 | 18371 ft | 361 kts | 236° |
| 2026-05-06 01:51 | 45.90766 | 5.45559 | 18709 ft | 363 kts | 236° |
| 2026-05-06 01:51 | 45.88963 | 5.41444 | 19428 ft | 365 kts | 235° |
| 2026-05-06 01:52 | 45.88063 | 5.39396 | 19790 ft | 366 kts | 235° |
| 2026-05-06 01:52 | 45.86698 | 5.36308 | 20334 ft | 368 kts | 235° |
| 2026-05-06 01:52 | 45.85322 | 5.33205 | 20845 ft | 369 kts | 235° |
| 2026-05-06 01:52 | 45.83938 | 5.30089 | 21369 ft | 371 kts | 234° |
| 2026-05-06 01:53 | 45.82547 | 5.26965 | 21894 ft | 372 kts | 234° |
| 2026-05-06 01:53 | 45.81147 | 5.23828 | 22414 ft | 373 kts | 234° |
| 2026-05-06 01:53 | 45.79746 | 5.20686 | 22903 ft | 375 kts | 234° |
| 2026-05-06 01:53 | 45.78340 | 5.17534 | 23407 ft | 377 kts | 234° |
| 2026-05-06 01:54 | 45.76923 | 5.14363 | 23822 ft | 378 kts | 234° |
| 2026-05-06 01:54 | 45.75502 | 5.11181 | 24237 ft | 379 kts | 234° |
| 2026-05-06 01:54 | 45.74086 | 5.07976 | 24571 ft | 384 kts | 234° |
| 2026-05-06 01:54 | 45.72723 | 5.04649 | 24838 ft | 390 kts | 236° |
| 2026-05-06 01:55 | 45.71410 | 5.01246 | 25198 ft | 392 kts | 237° |
| 2026-05-06 01:55 | 45.70111 | 4.97792 | 25555 ft | 394 kts | 237° |
| 2026-05-06 01:55 | 45.68815 | 4.94335 | 25936 ft | 395 kts | 237° |
| 2026-05-06 01:55 | 45.67520 | 4.90915 | 26314 ft | 396 kts | 236° |
| 2026-05-06 01:56 | 45.66201 | 4.87449 | 26705 ft | 398 kts | 237° |
| 2026-05-06 01:56 | 45.64918 | 4.83933 | 27070 ft | 400 kts | 237° |
| 2026-05-06 01:56 | 45.63663 | 4.80370 | 27415 ft | 402 kts | 238° |
| 2026-05-06 01:56 | 45.62420 | 4.76786 | 27793 ft | 403 kts | 238° |
| 2026-05-06 01:57 | 45.61170 | 4.73182 | 28157 ft | 405 kts | 237° |
| 2026-05-06 01:57 | 45.59911 | 4.69578 | 28512 ft | 406 kts | 237° |
| 2026-05-06 01:57 | 45.58633 | 4.65957 | 28812 ft | 410 kts | 238° |
| 2026-05-06 01:57 | 45.57333 | 4.62312 | 29019 ft | 415 kts | 237° |
| 2026-05-06 01:58 | 45.56013 | 4.58629 | 29301 ft | 417 kts | 237° |
| 2026-05-06 01:58 | 45.54692 | 4.54943 | 29615 ft | 419 kts | 237° |
| 2026-05-06 01:58 | 45.53360 | 4.51227 | 29928 ft | 421 kts | 237° |
| 2026-05-06 01:58 | 45.52029 | 4.47507 | 30185 ft | 422 kts | 237° |
| 2026-05-06 01:59 | 45.50692 | 4.43770 | 30444 ft | 423 kts | 238° |
| 2026-05-06 01:59 | 45.49353 | 4.40026 | 30697 ft | 425 kts | 238° |
| 2026-05-06 01:59 | 45.48007 | 4.36268 | 30935 ft | 426 kts | 238° |
| 2026-05-06 01:59 | 45.46662 | 4.32516 | 31272 ft | 425 kts | 238° |
| 2026-05-06 02:00 | 45.45318 | 4.28779 | 31619 ft | 423 kts | 238° |
| 2026-05-06 02:00 | 45.43974 | 4.25048 | 32008 ft | 422 kts | 239° |
| 2026-05-06 02:00 | 45.42631 | 4.21330 | 32273 ft | 423 kts | 239° |
| 2026-05-06 02:00 | 45.41283 | 4.17607 | 32588 ft | 422 kts | 239° |
| 2026-05-06 02:01 | 45.39938 | 4.13902 | 32950 ft | 421 kts | 239° |
| 2026-05-06 02:01 | 45.38595 | 4.10206 | 33289 ft | 420 kts | 239° |
| 2026-05-06 02:01 | 45.37254 | 4.06525 | 33646 ft | 418 kts | 239° |
| 2026-05-06 02:01 | 45.35917 | 4.02858 | 33989 ft | 417 kts | 240° |
| 2026-05-06 02:02 | 45.34585 | 3.99205 | 34266 ft | 416 kts | 240° |
| 2026-05-06 02:02 | 45.33253 | 3.95554 | 34516 ft | 416 kts | 240° |
| 2026-05-06 02:02 | 45.31920 | 3.91902 | 34749 ft | 416 kts | 240° |
| 2026-05-06 02:02 | 45.30587 | 3.88257 | 34849 ft | 416 kts | 240° |
| 2026-05-06 02:03 | 45.27944 | 3.81037 | 34878 ft | 411 kts | 240° |
| 2026-05-06 02:03 | 45.25199 | 3.73921 | 34893 ft | 409 kts | 233° |
| 2026-05-06 02:04 | 45.21933 | 3.67299 | 34892 ft | 410 kts | 233° |
| 2026-05-06 02:04 | 45.18666 | 3.60677 | 34893 ft | 410 kts | 233° |
| 2026-05-06 02:05 | 45.15420 | 3.54105 | 34896 ft | 410 kts | 233° |
| 2026-05-06 02:05 | 45.12150 | 3.47500 | 34902 ft | 409 kts | 233° |
| 2026-05-06 02:06 | 45.08884 | 3.40905 | 34904 ft | 409 kts | 233° |
| 2026-05-06 02:06 | 45.05613 | 3.34328 | 34901 ft | 408 kts | 233° |
| 2026-05-06 02:07 | 45.02342 | 3.27773 | 34908 ft | 408 kts | 233° |